YMAV 042200Z AUTO 12011KT 9999 // OVC041 15/06 Q1022

Station Name: Melbourne Gliding Club - YBSS

Location: Parwan, VIC, Australia
Last Updated on Nov 22 2021, 8:28 pm AEDT
 
Wind Direction: North ** SUSPECT READING **
Wind Degrees: 360 ** SUSPECT READING **
Wind Speed (kts): 5
Wind 10 min AVG (kts): 5
Wind 10 min gust (kts): 7
Estimated Cloudbase (dewpoint) QNH : 2050 feet
Temperature (C): 15.3
Dewpoint (C): 12.2
Soil temp (C): 23.3
UV index: 0.0
.
Temperature HIGH (day): 22.3 at 12:19pm
Temperature LOW (day): 8.9 at 5:05am
Humidity: 82% Feels like: 15.0
Barometer: 1000.9 mb Steady
Solar radiation (W/m2): 0
------- .
Sunrise: 12:57am
Sunset: 10:53am
Rain past 24hrs: 0 mm
Seaonal total: 327.7 mm
Soil temp (C): 23.3
Soil moisture* (cb): 23 (1-4 use sealed areas, 10+ is dry)


TAF YMAV 041705Z 0418/0518 16008KT 9999 BKN045 FM042100 13010KT 9999 SCT030 FM051000 24008KT 9999 FEW030 FM051600 33006KT CAVOK

YMAV 042200Z AUTO 12011KT 9999 // OVC041 15/06 Q1022